Time;durP1;ratioP1;P1;durP2;ratioP2;P2;SDS_P1;SDS_P2;PMS_P1;PMS_P2;Temp;Humidity;BMP_temperature;BMP_pressure;BME280_temperature;BME280_humidity;BME280_pressure;Samples;Min_cycle;Max_cycle;Signal;HPM_P1;HPM_P2
2021/01/19 00:01:30;;;;;;;3.58;0.73;;;;;;;;;;4993984;28;20041;-55
2021/01/19 00:03:56;;;;;;;3.75;0.75;;;;;;;;;;4992581;28;20046;-57
2021/01/19 00:06:22;;;;;;;4.93;0.65;;;;;;;;;;4994188;28;20042;-56
2021/01/19 00:08:47;;;;;;;2.55;0.63;;;;;;;;;;4994196;28;20041;-57
2021/01/19 00:11:14;;;;;;;3.88;0.68;;;;;;;;;;4993781;28;20080;-55
2021/01/19 00:13:40;;;;;;;6.45;0.75;;;;;;;;;;4995274;28;20446;-55
2021/01/19 00:16:06;;;;;;;6.15;0.90;;;;;;;;;;4994920;28;20048;-57
2021/01/19 00:18:32;;;;;;;2.85;0.80;;;;;;;;;;4994620;28;20042;-57
2021/01/19 00:20:57;;;;;;;3.38;0.98;;;;;;;;;;4994310;28;20179;-56
2021/01/19 00:23:23;;;;;;;3.55;1.27;;;;;;;;;;4993215;28;20057;-54
2021/01/19 00:25:49;;;;;;;6.75;1.15;;;;;;;;;;4993779;28;20056;-56
2021/01/19 00:28:15;;;;;;;9.25;1.42;;;;;;;;;;4995907;28;20104;-57
2021/01/19 00:30:41;;;;;;;4.57;1.17;;;;;;;;;;4978956;28;20062;-55
2021/01/19 00:33:08;;;;;;;5.57;1.20;;;;;;;;;;4995204;28;20195;-55
2021/01/19 00:35:34;;;;;;;5.10;1.00;;;;;;;;;;4993074;28;20051;-55
2021/01/19 00:38:00;;;;;;;5.45;0.85;;;;;;;;;;4997857;28;20212;-54
2021/01/19 00:40:30;;;;;;;3.65;0.85;;;;;;;;;;4994311;28;20556;-54
2021/01/19 00:42:56;;;;;;;6.88;1.00;;;;;;;;;;4995628;28;20180;-55
2021/01/19 00:45:22;;;;;;;7.47;1.35;;;;;;;;;;4994270;28;20038;-55
2021/01/19 00:47:48;;;;;;;8.48;1.52;;;;;;;;;;4995364;28;20038;-57
2021/01/19 00:50:14;;;;;;;6.07;1.20;;;;;;;;;;4993357;28;20034;-53
2021/01/19 00:52:40;;;;;;;6.38;1.13;;;;;;;;;;4993001;28;20049;-57
2021/01/19 00:55:10;;;;;;;11.10;1.38;;;;;;;;;;4993541;28;20050;-55
2021/01/19 00:57:36;;;;;;;7.22;0.98;;;;;;;;;;4993756;28;20037;-56
2021/01/19 01:00:04;;;;;;;7.78;2.17;;;;;;;;;;4996352;28;20114;-54
2021/01/19 01:02:30;;;;;;;17.77;6.30;;;;;;;;;;4990949;28;20049;-56
2021/01/19 01:04:56;;;;;;;11.20;3.45;;;;;;;;;;4993437;28;20034;-57
2021/01/19 01:07:22;;;;;;;14.18;3.47;;;;;;;;;;4977963;28;20046;-54
2021/01/19 01:09:48;;;;;;;9.00;2.35;;;;;;;;;;4993656;28;20569;-57
2021/01/19 01:12:13;;;;;;;8.23;1.70;;;;;;;;;;4993416;28;20050;-54
2021/01/19 01:14:39;;;;;;;11.82;1.10;;;;;;;;;;4977340;28;20041;-57
2021/01/19 01:17:05;;;;;;;4.97;1.38;;;;;;;;;;4994383;28;20403;-59
2021/01/19 01:19:31;;;;;;;9.80;1.10;;;;;;;;;;4992706;28;20481;-58
2021/01/19 01:21:59;;;;;;;11.73;1.33;;;;;;;;;;4989357;28;20048;-55
2021/01/19 01:24:25;;;;;;;5.25;1.20;;;;;;;;;;4975422;28;20068;-54
2021/01/19 01:26:53;;;;;;;8.55;2.47;;;;;;;;;;4993760;28;20117;-55
2021/01/19 01:29:19;;;;;;;6.30;1.02;;;;;;;;;;4990817;28;20038;-55
2021/01/19 01:31:45;;;;;;;9.70;1.42;;;;;;;;;;4974834;28;20057;-55
2021/01/19 01:34:10;;;;;;;5.57;1.00;;;;;;;;;;4991653;28;20799;-53
2021/01/19 01:36:39;;;;;;;6.82;1.33;;;;;;;;;;4990937;28;20058;-56
2021/01/19 01:39:06;;;;;;;5.05;1.00;;;;;;;;;;4991943;28;20049;-56
2021/01/19 01:41:32;;;;;;;4.95;1.58;;;;;;;;;;4991967;28;20056;-55
2021/01/19 01:44:00;;;;;;;8.32;1.50;;;;;;;;;;4992130;28;20058;-56
2021/01/19 01:46:26;;;;;;;12.68;1.60;;;;;;;;;;4992741;28;22112;-55
2021/01/19 01:48:52;;;;;;;8.63;1.40;;;;;;;;;;4994126;28;20042;-56
2021/01/19 01:51:18;;;;;;;5.30;1.60;;;;;;;;;;4990807;28;20966;-52
2021/01/19 01:53:44;;;;;;;10.73;1.75;;;;;;;;;;4995204;28;20058;-54
2021/01/19 01:56:10;;;;;;;6.82;1.13;;;;;;;;;;4993090;28;20050;-54
2021/01/19 01:58:36;;;;;;;10.35;2.40;;;;;;;;;;4993543;28;20038;-55
2021/01/19 02:01:03;;;;;;;11.10;2.20;;;;;;;;;;4992641;28;20034;-56
2021/01/19 02:03:29;;;;;;;9.82;2.15;;;;;;;;;;4992094;28;20164;-56
2021/01/19 02:05:55;;;;;;;10.68;2.10;;;;;;;;;;4992649;28;20041;-56
2021/01/19 02:08:31;;;;;;;11.25;1.92;;;;;;;;;;4992847;28;20089;-55
2021/01/19 02:11:12;;;;;;;10.88;1.85;;;;;;;;;;4992399;28;20046;-56
2021/01/19 02:13:38;;;;;;;17.60;2.92;;;;;;;;;;4994131;28;20038;-54
2021/01/19 02:16:16;;;;;;;10.40;2.00;;;;;;;;;;4993202;28;20750;-56
2021/01/19 02:19:01;;;;;;;8.07;1.67;;;;;;;;;;4991822;28;20049;-55
2021/01/19 02:21:45;;;;;;;11.68;1.80;;;;;;;;;;4991185;28;20435;-56
2021/01/19 02:24:16;;;;;;;7.60;1.67;;;;;;;;;;4992320;28;20148;-55
2021/01/19 02:26:51;;;;;;;8.23;2.97;;;;;;;;;;4990572;28;20038;-56
2021/01/19 02:29:25;;;;;;;13.52;2.70;;;;;;;;;;4992692;28;20038;-56
2021/01/19 02:31:54;;;;;;;14.52;2.65;;;;;;;;;;4988111;28;20050;-56
2021/01/19 02:34:38;;;;;;;10.77;3.10;;;;;;;;;;4992135;28;20105;-55
2021/01/19 02:37:07;;;;;;;13.50;2.80;;;;;;;;;;4993046;28;20111;-56
2021/01/19 02:39:45;;;;;;;8.07;2.25;;;;;;;;;;4992000;28;20133;-56
2021/01/19 02:42:11;;;;;;;11.48;2.60;;;;;;;;;;4992270;28;20107;-56
2021/01/19 02:44:38;;;;;;;17.55;2.47;;;;;;;;;;4992235;28;20097;-53
2021/01/19 02:47:04;;;;;;;10.57;2.30;;;;;;;;;;4992859;28;20053;-55
2021/01/19 02:49:30;;;;;;;12.60;1.85;;;;;;;;;;4990771;28;20153;-56
2021/01/19 02:51:58;;;;;;;8.23;2.03;;;;;;;;;;4992048;28;20044;-56
2021/01/19 02:54:24;;;;;;;11.00;2.13;;;;;;;;;;4992072;28;20139;-54
2021/01/19 02:57:09;;;;;;;6.93;2.08;;;;;;;;;;4993636;28;20029;-55
2021/01/19 02:59:38;;;;;;;13.82;2.67;;;;;;;;;;4993585;28;20585;-56
2021/01/19 03:02:06;;;;;;;13.13;2.20;;;;;;;;;;4993806;28;20655;-56
2021/01/19 03:04:33;;;;;;;10.40;2.22;;;;;;;;;;4993669;28;20498;-55
2021/01/19 03:07:07;;;;;;;8.88;2.15;;;;;;;;;;4993610;28;20169;-56
2021/01/19 03:09:35;;;;;;;14.40;2.70;;;;;;;;;;4991964;28;20046;-56
2021/01/19 03:12:01;;;;;;;16.08;2.20;;;;;;;;;;4993161;28;20042;-55
2021/01/19 03:14:27;;;;;;;11.10;2.08;;;;;;;;;;4992274;28;20042;-53
2021/01/19 03:17:02;;;;;;;7.15;2.00;;;;;;;;;;4992703;28;20043;-55
2021/01/19 03:19:29;;;;;;;6.47;1.90;;;;;;;;;;4992263;28;20045;-55
2021/01/19 03:21:55;;;;;;;5.22;1.70;;;;;;;;;;4993491;28;20045;-55
2021/01/19 03:24:21;;;;;;;8.23;2.00;;;;;;;;;;4993138;28;20073;-55
2021/01/19 03:26:46;;;;;;;4.88;1.60;;;;;;;;;;4992689;28;20132;-56
2021/01/19 03:29:12;;;;;;;7.35;1.50;;;;;;;;;;4993979;28;20115;-55
2021/01/19 03:31:38;;;;;;;7.85;1.98;;;;;;;;;;4990944;28;20093;-54
2021/01/19 03:34:04;;;;;;;7.38;2.03;;;;;;;;;;4992644;28;20223;-53
2021/01/19 03:36:30;;;;;;;6.97;1.77;;;;;;;;;;4991592;28;20497;-53
2021/01/19 03:38:56;;;;;;;5.78;1.73;;;;;;;;;;4990948;28;20042;-56
2021/01/19 03:41:22;;;;;;;9.15;2.05;;;;;;;;;;4992565;28;20053;-53
2021/01/19 03:43:47;;;;;;;10.70;1.90;;;;;;;;;;4987929;28;20130;-56
2021/01/19 03:46:13;;;;;;;7.80;1.98;;;;;;;;;;4990292;28;20123;-57
2021/01/19 03:48:39;;;;;;;9.05;2.10;;;;;;;;;;4967881;28;20117;-53
2021/01/19 03:51:05;;;;;;;13.07;2.70;;;;;;;;;;4974116;28;20133;-55
2021/01/19 03:53:31;;;;;;;16.23;2.33;;;;;;;;;;4990810;28;20070;-56
2021/01/19 03:55:57;;;;;;;15.90;2.17;;;;;;;;;;4991375;28;20061;-57
2021/01/19 03:58:23;;;;;;;10.65;2.60;;;;;;;;;;4989208;28;20042;-57
2021/01/19 04:00:49;;;;;;;6.97;2.65;;;;;;;;;;4989248;28;20088;-58
2021/01/19 04:03:14;;;;;;;8.18;1.42;;;;;;;;;;4992155;28;20107;-56
2021/01/19 04:05:40;;;;;;;14.13;2.10;;;;;;;;;;4991085;28;20056;-55
2021/01/19 04:08:06;;;;;;;7.25;1.50;;;;;;;;;;4992745;28;20034;-56
2021/01/19 04:10:32;;;;;;;9.18;1.80;;;;;;;;;;4992564;28;20030;-53
2021/01/19 04:12:58;;;;;;;8.68;1.30;;;;;;;;;;4994003;28;20129;-55
2021/01/19 04:15:25;;;;;;;12.75;1.77;;;;;;;;;;4995252;28;20034;-57
2021/01/19 04:17:52;;;;;;;4.97;1.70;;;;;;;;;;4994779;28;20037;-56
2021/01/19 04:20:18;;;;;;;15.38;2.00;;;;;;;;;;4977467;28;20042;-56
2021/01/19 04:22:43;;;;;;;13.10;3.10;;;;;;;;;;4994153;28;21954;-55
2021/01/19 04:25:09;;;;;;;8.35;2.00;;;;;;;;;;4993492;28;20041;-55
2021/01/19 04:27:35;;;;;;;4.43;1.55;;;;;;;;;;4993966;28;20053;-56
2021/01/19 04:30:07;;;;;;;16.35;2.20;;;;;;;;;;4993906;28;20057;-56
2021/01/19 04:32:37;;;;;;;7.10;2.05;;;;;;;;;;4992996;28;20065;-56
2021/01/19 04:35:04;;;;;;;9.18;1.83;;;;;;;;;;4994395;28;20052;-57
2021/01/19 04:37:30;;;;;;;5.57;1.50;;;;;;;;;;4993431;28;20049;-55
2021/01/19 04:39:56;;;;;;;9.52;1.60;;;;;;;;;;4995431;28;20415;-56
2021/01/19 04:42:22;;;;;;;10.07;1.77;;;;;;;;;;4992276;28;20129;-56
2021/01/19 04:44:51;;;;;;;9.65;1.67;;;;;;;;;;4995550;28;20038;-54
2021/01/19 04:47:17;;;;;;;7.28;1.63;;;;;;;;;;4995020;28;20033;-57
2021/01/19 04:49:49;;;;;;;13.40;2.55;;;;;;;;;;4978085;28;20075;-57
2021/01/19 04:52:17;;;;;;;10.63;1.90;;;;;;;;;;4996567;28;20142;-58
2021/01/19 04:55:13;;;;;;;7.22;2.22;;;;;;;;;;4995823;28;20061;-57
2021/01/19 04:57:40;;;;;;;12.35;2.00;;;;;;;;;;4977717;28;20038;-57
2021/01/19 05:00:07;;;;;;;7.22;2.00;;;;;;;;;;4995317;28;20373;-57
2021/01/19 05:02:52;;;;;;;13.02;2.42;;;;;;;;;;4995662;28;20132;-58
2021/01/19 05:05:18;;;;;;;16.85;2.20;;;;;;;;;;4993578;28;20054;-57
2021/01/19 05:08:04;;;;;;;13.15;2.42;;;;;;;;;;4995202;28;20038;-56
2021/01/19 05:10:33;;;;;;;19.35;3.17;;;;;;;;;;4953627;28;20395;-56
2021/01/19 05:13:07;;;;;;;7.43;2.38;;;;;;;;;;4991728;28;20034;-56
2021/01/19 05:15:34;;;;;;;7.07;2.47;;;;;;;;;;4991449;28;20702;-55
2021/01/19 05:18:01;;;;;;;18.70;2.60;;;;;;;;;;4993024;28;20040;-56
2021/01/19 05:20:30;;;;;;;14.35;2.38;;;;;;;;;;4990038;28;20049;-55
2021/01/19 05:22:57;;;;;;;7.43;1.70;;;;;;;;;;4993096;28;20053;-54
2021/01/19 05:25:23;;;;;;;8.40;1.75;;;;;;;;;;4993206;28;20037;-54
2021/01/19 05:27:49;;;;;;;12.55;2.05;;;;;;;;;;4992738;28;20100;-55
2021/01/19 05:30:15;;;;;;;12.32;1.83;;;;;;;;;;4994673;28;20066;-57
2021/01/19 05:32:42;;;;;;;8.93;2.08;;;;;;;;;;4991719;28;20069;-57
2021/01/19 05:35:19;;;;;;;7.63;1.80;;;;;;;;;;4991220;28;20129;-54
2021/01/19 05:37:57;;;;;;;9.93;1.95;;;;;;;;;;4990368;28;20049;-54
2021/01/19 05:40:24;;;;;;;10.93;1.58;;;;;;;;;;4992830;28;20065;-55
2021/01/19 05:42:50;;;;;;;5.15;1.73;;;;;;;;;;4992478;28;20077;-57
2021/01/19 05:45:16;;;;;;;6.25;1.70;;;;;;;;;;4993190;28;20153;-56
2021/01/19 05:47:42;;;;;;;6.78;1.58;;;;;;;;;;4992020;28;20053;-55
2021/01/19 05:50:12;;;;;;;5.35;1.40;;;;;;;;;;4992459;28;20050;-54
2021/01/19 05:52:38;;;;;;;5.05;1.55;;;;;;;;;;4992677;28;20068;-55
2021/01/19 05:55:04;;;;;;;6.15;1.55;;;;;;;;;;4992060;28;20693;-56
2021/01/19 05:57:30;;;;;;;12.25;1.88;;;;;;;;;;4975225;28;20033;-55
2021/01/19 05:59:57;;;;;;;4.70;1.33;;;;;;;;;;4992627;28;20031;-52
2021/01/19 06:02:35;;;;;;;5.55;1.42;;;;;;;;;;4990655;28;20064;-55
2021/01/19 06:05:10;;;;;;;3.90;1.20;;;;;;;;;;4992262;28;20068;-56
2021/01/19 06:07:37;;;;;;;6.85;1.35;;;;;;;;;;4992530;28;20034;-54
2021/01/19 06:10:29;;;;;;;5.95;1.42;;;;;;;;;;4993416;28;20033;-54
2021/01/19 06:12:55;;;;;;;7.40;1.50;;;;;;;;;;4989911;28;20029;-55
2021/01/19 06:15:28;;;;;;;7.10;1.67;;;;;;;;;;4991844;28;20046;-56
2021/01/19 06:17:54;;;;;;;3.20;1.00;;;;;;;;;;4992293;28;20088;-56
2021/01/19 06:20:19;;;;;;;5.95;1.20;;;;;;;;;;4991149;28;20180;-58
2021/01/19 06:22:46;;;;;;;7.03;1.58;;;;;;;;;;4991132;28;20142;-53
2021/01/19 06:25:12;;;;;;;4.78;0.98;;;;;;;;;;4991937;28;20050;-56
2021/01/19 06:27:39;;;;;;;5.47;1.20;;;;;;;;;;4992086;28;20049;-56
2021/01/19 06:30:12;;;;;;;5.32;1.33;;;;;;;;;;4992746;28;20108;-54
2021/01/19 06:32:48;;;;;;;7.13;1.45;;;;;;;;;;4991905;28;20054;-53
2021/01/19 06:35:22;;;;;;;9.73;1.42;;;;;;;;;;4992054;28;20189;-53
2021/01/19 06:37:49;;;;;;;4.00;1.08;;;;;;;;;;4991938;28;20052;-57
2021/01/19 06:40:16;;;;;;;12.90;1.73;;;;;;;;;;4995059;28;20782;-57
2021/01/19 06:42:47;;;;;;;6.45;1.35;;;;;;;;;;4992563;28;20478;-57
2021/01/19 06:45:13;;;;;;;7.07;1.33;;;;;;;;;;4991868;28;20042;-57
2021/01/19 06:47:46;;;;;;;5.13;1.42;;;;;;;;;;4991254;28;20048;-56
2021/01/19 06:50:12;;;;;;;5.05;1.20;;;;;;;;;;4990651;28;22031;-54
2021/01/19 06:52:39;;;;;;;6.25;1.23;;;;;;;;;;4988589;28;20042;-56
2021/01/19 06:55:07;;;;;;;6.70;1.10;;;;;;;;;;4992052;28;20034;-55
2021/01/19 06:57:47;;;;;;;4.63;1.40;;;;;;;;;;4990851;28;20129;-53
2021/01/19 07:00:18;;;;;;;6.78;1.00;;;;;;;;;;4993457;28;20042;-55
2021/01/19 07:02:45;;;;;;;7.25;1.40;;;;;;;;;;4991181;28;20061;-53
2021/01/19 07:05:15;;;;;;;7.70;1.33;;;;;;;;;;4990571;28;20041;-57
2021/01/19 07:07:45;;;;;;;6.30;1.23;;;;;;;;;;4991244;28;20045;-56
2021/01/19 07:10:15;;;;;;;5.65;1.58;;;;;;;;;;4991290;28;20043;-54
2021/01/19 07:12:53;;;;;;;5.75;1.23;;;;;;;;;;4990454;28;20061;-54
2021/01/19 07:15:27;;;;;;;3.65;1.20;;;;;;;;;;4992031;28;20432;-55
2021/01/19 07:18:08;;;;;;;3.45;1.00;;;;;;;;;;4991937;28;20042;-57
2021/01/19 07:20:40;;;;;;;4.38;1.27;;;;;;;;;;4992040;28;20038;-56
2021/01/19 07:23:33;;;;;;;9.38;1.20;;;;;;;;;;4990214;28;20058;-56
2021/01/19 07:25:59;;;;;;;3.80;1.10;;;;;;;;;;4992251;28;20711;-56
2021/01/19 07:28:25;;;;;;;4.72;1.08;;;;;;;;;;4990369;28;20049;-55
2021/01/19 07:30:51;;;;;;;3.25;1.13;;;;;;;;;;4992966;28;20072;-56
2021/01/19 07:33:17;;;;;;;4.65;1.00;;;;;;;;;;4993270;28;20052;-55
2021/01/19 07:35:43;;;;;;;4.07;1.00;;;;;;;;;;4988662;28;20053;-56
2021/01/19 07:38:09;;;;;;;5.82;1.30;;;;;;;;;;4976628;28;20057;-53
2021/01/19 07:40:43;;;;;;;4.50;1.17;;;;;;;;;;4995713;28;20034;-54
2021/01/19 07:43:19;;;;;;;3.50;1.20;;;;;;;;;;4995046;28;20050;-57
2021/01/19 07:45:52;;;;;;;3.90;1.20;;;;;;;;;;4993288;28;20842;-54
2021/01/19 07:48:28;;;;;;;3.95;0.95;;;;;;;;;;4996082;28;20133;-56
2021/01/19 07:50:54;;;;;;;7.25;1.30;;;;;;;;;;4996060;28;20045;-54
2021/01/19 07:53:20;;;;;;;4.45;1.10;;;;;;;;;;4995202;28;20042;-55
2021/01/19 07:55:46;;;;;;;6.15;1.27;;;;;;;;;;4994749;28;20053;-56
2021/01/19 07:58:23;;;;;;;4.18;1.10;;;;;;;;;;4996161;28;20045;-56
2021/01/19 08:00:57;;;;;;;3.85;1.20;;;;;;;;;;4994486;28;20784;-56
2021/01/19 08:03:27;;;;;;;6.78;1.38;;;;;;;;;;4995028;28;20081;-56
2021/01/19 08:05:53;;;;;;;4.93;1.20;;;;;;;;;;4994181;28;20052;-54
2021/01/19 08:08:19;;;;;;;6.53;1.65;;;;;;;;;;4994350;28;20038;-55
2021/01/19 08:10:57;;;;;;;5.13;1.10;;;;;;;;;;4993682;28;20116;-55
2021/01/19 08:13:23;;;;;;;7.32;1.85;;;;;;;;;;4993196;28;20038;-53
2021/01/19 08:16:05;;;;;;;4.72;1.30;;;;;;;;;;4995023;28;20052;-55
2021/01/19 08:18:49;;;;;;;8.07;1.30;;;;;;;;;;4993680;28;20045;-56
2021/01/19 08:21:15;;;;;;;5.30;1.10;;;;;;;;;;4992809;28;20045;-53
2021/01/19 08:23:41;;;;;;;6.22;1.40;;;;;;;;;;4992404;28;20050;-53
2021/01/19 08:26:09;;;;;;;5.60;1.15;;;;;;;;;;4995267;28;20088;-54
2021/01/19 08:28:36;;;;;;;4.50;1.35;;;;;;;;;;4993261;28;20044;-54
2021/01/19 08:31:02;;;;;;;4.18;1.20;;;;;;;;;;4992948;28;20409;-56
2021/01/19 08:33:28;;;;;;;4.82;1.30;;;;;;;;;;4993805;28;20042;-52
2021/01/19 08:35:55;;;;;;;3.50;1.50;;;;;;;;;;4993648;28;20052;-53
2021/01/19 08:38:24;;;;;;;4.55;1.38;;;;;;;;;;4993085;28;20100;-54
2021/01/19 08:40:50;;;;;;;8.32;1.55;;;;;;;;;;4993238;28;20046;-56
2021/01/19 08:43:17;;;;;;;5.85;1.50;;;;;;;;;;4994449;28;20046;-54
2021/01/19 08:45:43;;;;;;;6.47;1.40;;;;;;;;;;4992704;28;20049;-53
2021/01/19 08:48:09;;;;;;;7.40;1.40;;;;;;;;;;4993239;28;20054;-54
2021/01/19 08:50:39;;;;;;;8.35;1.60;;;;;;;;;;4992523;28;20034;-56
2021/01/19 08:53:12;;;;;;;4.45;1.60;;;;;;;;;;4993551;28;20065;-56
2021/01/19 08:55:38;;;;;;;4.50;1.35;;;;;;;;;;4992354;28;20045;-54
2021/01/19 08:58:05;;;;;;;5.80;1.73;;;;;;;;;;4992871;28;20060;-54
2021/01/19 09:00:36;;;;;;;6.20;1.70;;;;;;;;;;4991483;28;20046;-53
2021/01/19 09:03:18;;;;;;;8.73;1.90;;;;;;;;;;4994233;28;20054;-55
2021/01/19 09:05:44;;;;;;;6.22;1.55;;;;;;;;;;4992114;28;20093;-55
2021/01/19 09:08:13;;;;;;;5.57;1.25;;;;;;;;;;4993099;28;20606;-54
2021/01/19 09:10:39;;;;;;;6.88;1.52;;;;;;;;;;4993533;28;20046;-56
2021/01/19 09:13:05;;;;;;;5.07;1.33;;;;;;;;;;4994793;28;20122;-55
2021/01/19 09:15:41;;;;;;;3.65;1.00;;;;;;;;;;4993264;28;20070;-53
2021/01/19 09:18:11;;;;;;;3.70;1.40;;;;;;;;;;4994354;28;20149;-54
2021/01/19 09:20:37;;;;;;;3.35;0.90;;;;;;;;;;4992736;28;20168;-56
2021/01/19 09:23:16;;;;;;;3.53;1.00;;;;;;;;;;4992628;28;20437;-54
2021/01/19 09:25:43;;;;;;;4.43;1.15;;;;;;;;;;4992609;28;20410;-55
2021/01/19 09:28:09;;;;;;;4.50;0.80;;;;;;;;;;4992054;28;21895;-54
2021/01/19 09:30:36;;;;;;;6.38;0.90;;;;;;;;;;4992413;28;20037;-56
2021/01/19 09:33:10;;;;;;;4.30;1.48;;;;;;;;;;4991861;28;20065;-54
2021/01/19 09:35:36;;;;;;;2.60;0.85;;;;;;;;;;4991747;28;20078;-53
2021/01/19 09:38:03;;;;;;;5.55;0.80;;;;;;;;;;4992479;28;20124;-55
2021/01/19 09:40:30;;;;;;;5.22;1.00;;;;;;;;;;4992510;28;20048;-55
2021/01/19 09:42:56;;;;;;;4.28;0.65;;;;;;;;;;4991909;28;20049;-55
2021/01/19 09:45:22;;;;;;;3.45;0.90;;;;;;;;;;4992898;28;20042;-54
2021/01/19 09:47:48;;;;;;;2.67;0.85;;;;;;;;;;4992632;28;20045;-56
2021/01/19 09:50:14;;;;;;;2.95;0.80;;;;;;;;;;4991359;28;20392;-55
2021/01/19 09:52:44;;;;;;;4.15;0.80;;;;;;;;;;4989908;28;20113;-54
2021/01/19 09:55:14;;;;;;;1.98;0.70;;;;;;;;;;4974566;28;20031;-55
2021/01/19 09:57:41;;;;;;;3.58;0.80;;;;;;;;;;4991247;28;20038;-52
2021/01/19 10:00:08;;;;;;;4.88;0.80;;;;;;;;;;4991379;28;20034;-56
2021/01/19 10:02:34;;;;;;;4.95;1.27;;;;;;;;;;4991297;28;20037;-55
2021/01/19 10:05:03;;;;;;;3.22;0.77;;;;;;;;;;4994577;28;20069;-54
2021/01/19 10:07:30;;;;;;;4.30;0.70;;;;;;;;;;4990575;28;20034;-55
2021/01/19 10:10:08;;;;;;;6.10;0.90;;;;;;;;;;4992724;28;20447;-54
2021/01/19 10:12:33;;;;;;;6.40;1.00;;;;;;;;;;4992031;28;20045;-52
2021/01/19 10:14:59;;;;;;;2.90;0.90;;;;;;;;;;4993652;28;20052;-52
2021/01/19 10:17:30;;;;;;;4.13;1.33;;;;;;;;;;4992341;28;20046;-52
2021/01/19 10:20:15;;;;;;;5.15;1.00;;;;;;;;;;4993800;28;20045;-52
2021/01/19 10:22:42;;;;;;;3.63;1.00;;;;;;;;;;4991066;28;20049;-53
2021/01/19 10:25:09;;;;;;;3.97;0.93;;;;;;;;;;4989758;28;20081;-55
2021/01/19 10:27:39;;;;;;;7.43;1.58;;;;;;;;;;4991615;28;20061;-52
2021/01/19 10:30:05;;;;;;;3.22;0.90;;;;;;;;;;4978317;28;20089;-55
2021/01/19 10:32:43;;;;;;;4.05;1.23;;;;;;;;;;4988296;28;20042;-52
2021/01/19 10:35:11;;;;;;;5.60;1.30;;;;;;;;;;4991673;28;20133;-55
2021/01/19 10:37:49;;;;;;;5.75;1.02;;;;;;;;;;4989919;28;20041;-54
2021/01/19 10:40:15;;;;;;;5.05;1.05;;;;;;;;;;4991987;28;20263;-55
2021/01/19 10:42:41;;;;;;;4.38;1.13;;;;;;;;;;4991121;28;20042;-55
2021/01/19 10:45:08;;;;;;;4.20;0.85;;;;;;;;;;4991160;28;20382;-55
2021/01/19 10:47:38;;;;;;;4.03;1.00;;;;;;;;;;4990657;28;20030;-53
2021/01/19 10:50:11;;;;;;;3.67;0.98;;;;;;;;;;4991845;28;20548;-55
2021/01/19 10:52:37;;;;;;;5.30;1.00;;;;;;;;;;4992342;28;22955;-52
2021/01/19 10:55:04;;;;;;;2.78;1.00;;;;;;;;;;4993093;28;20072;-55
2021/01/19 10:57:30;;;;;;;3.70;1.08;;;;;;;;;;4991098;28;20042;-55
2021/01/19 10:59:55;;;;;;;4.85;1.10;;;;;;;;;;4991316;28;20159;-55
2021/01/19 11:02:21;;;;;;;4.93;0.95;;;;;;;;;;4991629;28;20042;-54
2021/01/19 11:04:47;;;;;;;2.85;0.85;;;;;;;;;;4991620;28;20976;-56
2021/01/19 11:07:13;;;;;;;3.60;1.05;;;;;;;;;;4991833;28;20073;-55
2021/01/19 11:09:39;;;;;;;6.05;1.23;;;;;;;;;;4992778;28;20746;-53
2021/01/19 11:12:06;;;;;;;5.05;1.10;;;;;;;;;;4991712;28;21076;-54
2021/01/19 11:14:32;;;;;;;4.65;1.20;;;;;;;;;;4991183;28;20064;-56
2021/01/19 11:16:58;;;;;;;4.38;0.93;;;;;;;;;;4991174;28;20046;-55
2021/01/19 11:19:23;;;;;;;9.80;1.70;;;;;;;;;;4990623;28;20410;-53
2021/01/19 11:21:49;;;;;;;5.85;1.40;;;;;;;;;;4991168;28;21016;-56
2021/01/19 11:24:15;;;;;;;4.50;1.10;;;;;;;;;;4990948;28;20049;-55
2021/01/19 11:26:42;;;;;;;3.80;1.10;;;;;;;;;;4990936;28;20065;-55
2021/01/19 11:29:08;;;;;;;4.93;1.23;;;;;;;;;;4993085;28;22066;-55
2021/01/19 11:31:34;;;;;;;5.28;1.10;;;;;;;;;;4989363;28;20061;-53
2021/01/19 11:34:05;;;;;;;3.70;1.10;;;;;;;;;;4991038;28;20034;-56
2021/01/19 11:36:33;;;;;;;3.88;1.08;;;;;;;;;;4990005;28;20042;-56
2021/01/19 11:38:59;;;;;;;4.63;1.45;;;;;;;;;;4991661;28;20384;-52
2021/01/19 11:41:27;;;;;;;6.50;1.05;;;;;;;;;;4975102;28;20096;-56
2021/01/19 11:43:53;;;;;;;4.05;1.20;;;;;;;;;;4992338;28;20053;-55
2021/01/19 11:46:20;;;;;;;4.90;1.20;;;;;;;;;;4990857;28;20455;-56
2021/01/19 11:48:46;;;;;;;4.10;1.00;;;;;;;;;;4991749;28;20034;-54
2021/01/19 11:51:15;;;;;;;2.58;0.90;;;;;;;;;;4989552;28;20612;-54
2021/01/19 11:53:41;;;;;;;4.53;1.15;;;;;;;;;;4990672;28;20037;-53
2021/01/19 11:56:07;;;;;;;5.78;0.90;;;;;;;;;;4990982;28;20074;-53
2021/01/19 11:58:33;;;;;;;5.18;1.00;;;;;;;;;;4990647;28;20046;-55
2021/01/19 12:00:58;;;;;;;2.97;0.90;;;;;;;;;;4991668;28;20026;-55
2021/01/19 12:03:24;;;;;;;2.50;0.75;;;;;;;;;;4990342;28;20049;-55
2021/01/19 12:05:50;;;;;;;3.63;0.90;;;;;;;;;;4991269;28;20041;-54
2021/01/19 12:08:16;;;;;;;5.28;1.17;;;;;;;;;;4992371;28;20054;-55
2021/01/19 12:10:43;;;;;;;3.30;0.98;;;;;;;;;;4989370;28;20091;-56
2021/01/19 12:13:09;;;;;;;6.53;1.92;;;;;;;;;;4991542;28;20041;-53
2021/01/19 12:15:35;;;;;;;5.10;0.85;;;;;;;;;;4991665;28;20065;-56
2021/01/19 12:18:01;;;;;;;8.35;1.60;;;;;;;;;;4989617;28;20049;-55
2021/01/19 12:20:27;;;;;;;6.28;1.27;;;;;;;;;;4989405;28;20104;-54
2021/01/19 12:22:53;;;;;;;6.22;1.20;;;;;;;;;;4989640;28;20057;-54
2021/01/19 12:25:19;;;;;;;4.82;0.90;;;;;;;;;;4993175;28;20491;-55
2021/01/19 12:27:47;;;;;;;3.58;1.20;;;;;;;;;;4994544;28;20510;-52
2021/01/19 12:30:13;;;;;;;3.17;1.02;;;;;;;;;;4993370;28;20072;-55
2021/01/19 12:32:39;;;;;;;2.80;0.90;;;;;;;;;;4989384;28;20042;-53
2021/01/19 12:35:05;;;;;;;3.53;1.00;;;;;;;;;;4992928;28;20589;-54
2021/01/19 12:37:31;;;;;;;4.95;1.13;;;;;;;;;;4993835;28;20061;-55
2021/01/19 12:39:57;;;;;;;5.88;1.10;;;;;;;;;;4994587;28;20126;-52
2021/01/19 12:42:23;;;;;;;4.95;1.10;;;;;;;;;;4993303;28;20264;-54
2021/01/19 12:44:49;;;;;;;3.70;0.90;;;;;;;;;;4994754;28;20056;-55
2021/01/19 12:47:15;;;;;;;4.90;0.98;;;;;;;;;;4993835;28;20167;-55
2021/01/19 12:49:41;;;;;;;5.20;1.33;;;;;;;;;;4996342;28;20041;-57
2021/01/19 12:52:10;;;;;;;10.18;1.15;;;;;;;;;;4994791;28;20041;-56
2021/01/19 12:54:35;;;;;;;5.05;0.73;;;;;;;;;;4991750;28;20053;-56
2021/01/19 12:57:01;;;;;;;2.63;0.70;;;;;;;;;;4992164;28;20038;-53
2021/01/19 12:59:27;;;;;;;3.53;0.90;;;;;;;;;;4992700;28;20073;-54
2021/01/19 13:01:59;;;;;;;4.03;0.80;;;;;;;;;;4987680;28;20145;-57
2021/01/19 13:04:25;;;;;;;3.70;0.63;;;;;;;;;;4993045;28;20094;-56
2021/01/19 13:06:51;;;;;;;2.63;0.70;;;;;;;;;;4992766;28;20040;-54
2021/01/19 13:09:17;;;;;;;2.90;0.70;;;;;;;;;;4992131;28;20064;-56
2021/01/19 13:11:43;;;;;;;7.15;0.82;;;;;;;;;;4993388;28;20122;-56
2021/01/19 13:14:09;;;;;;;6.68;0.80;;;;;;;;;;4994346;28;20050;-55
2021/01/19 13:16:34;;;;;;;3.25;0.90;;;;;;;;;;4992370;28;20042;-56
2021/01/19 13:19:01;;;;;;;3.20;0.68;;;;;;;;;;4993264;28;20042;-53
2021/01/19 13:21:27;;;;;;;4.95;0.70;;;;;;;;;;4992968;28;20086;-54
2021/01/19 13:23:53;;;;;;;3.03;0.73;;;;;;;;;;4992972;28;20594;-56
2021/01/19 13:26:19;;;;;;;3.30;0.60;;;;;;;;;;4991306;28;20634;-56
2021/01/19 13:28:45;;;;;;;2.90;0.70;;;;;;;;;;4994383;28;20054;-55
2021/01/19 13:31:11;;;;;;;2.10;0.65;;;;;;;;;;4994029;28;20049;-57
2021/01/19 13:33:37;;;;;;;2.63;0.60;;;;;;;;;;4992978;28;20049;-56
2021/01/19 13:36:03;;;;;;;3.55;0.80;;;;;;;;;;4991739;28;20368;-56
2021/01/19 13:38:29;;;;;;;2.50;0.60;;;;;;;;;;4991455;28;20038;-56
2021/01/19 13:40:54;;;;;;;2.53;0.80;;;;;;;;;;4992590;28;20471;-55
2021/01/19 13:43:20;;;;;;;2.78;0.70;;;;;;;;;;4991969;28;20755;-55
2021/01/19 13:45:46;;;;;;;6.15;0.90;;;;;;;;;;4992846;28;20574;-55
2021/01/19 13:48:12;;;;;;;4.82;0.80;;;;;;;;;;4993688;28;20125;-57
2021/01/19 13:50:38;;;;;;;8.15;1.13;;;;;;;;;;4992178;28;20042;-56
2021/01/19 13:53:04;;;;;;;5.30;0.80;;;;;;;;;;4991613;28;20125;-56
2021/01/19 13:55:30;;;;;;;3.45;0.70;;;;;;;;;;4993710;28;20046;-56
2021/01/19 13:57:56;;;;;;;4.15;0.88;;;;;;;;;;4993334;28;20467;-55
2021/01/19 14:00:22;;;;;;;5.85;0.88;;;;;;;;;;4990680;28;20123;-54
2021/01/19 14:02:48;;;;;;;8.30;1.00;;;;;;;;;;4992401;28;20035;-53
2021/01/19 14:05:14;;;;;;;2.42;0.70;;;;;;;;;;4991295;28;20038;-53
2021/01/19 14:07:40;;;;;;;2.90;0.90;;;;;;;;;;4993354;28;20081;-56
2021/01/19 14:10:06;;;;;;;5.65;1.02;;;;;;;;;;4993059;28;20126;-57
2021/01/19 14:12:32;;;;;;;6.50;0.95;;;;;;;;;;4992828;28;20045;-57
2021/01/19 14:14:57;;;;;;;2.65;0.70;;;;;;;;;;4991866;28;20049;-54
2021/01/19 14:17:23;;;;;;;4.25;0.95;;;;;;;;;;4990826;28;20050;-54
2021/01/19 14:19:49;;;;;;;2.53;0.63;;;;;;;;;;4992814;28;20116;-56
2021/01/19 14:22:15;;;;;;;4.05;0.75;;;;;;;;;;4992688;28;20054;-56
2021/01/19 14:24:41;;;;;;;4.40;0.80;;;;;;;;;;4991489;28;20168;-56
2021/01/19 14:27:07;;;;;;;1.95;0.60;;;;;;;;;;4994104;28;20390;-53
2021/01/19 14:29:34;;;;;;;3.90;0.90;;;;;;;;;;4991619;28;20061;-55
2021/01/19 14:31:59;;;;;;;2.30;0.60;;;;;;;;;;4993670;28;20768;-53
2021/01/19 14:34:25;;;;;;;6.95;0.77;;;;;;;;;;4991576;28;20291;-56
2021/01/19 14:36:52;;;;;;;4.90;0.90;;;;;;;;;;4990254;28;20126;-56
2021/01/19 14:39:19;;;;;;;3.78;0.73;;;;;;;;;;4991637;28;20050;-56
2021/01/19 14:41:45;;;;;;;5.43;0.70;;;;;;;;;;4992173;28;20174;-54
2021/01/19 14:44:12;;;;;;;5.30;0.80;;;;;;;;;;4992107;28;20046;-53
2021/01/19 14:46:38;;;;;;;5.40;0.75;;;;;;;;;;4992471;28;20496;-54